sim
Sign-in with your pilot id or email,
or register
Callsign
Passwort

Schedule Details

Flight Number: OEO1514
Departure: Munich Airport (EDDM) at 06:25
Arrival: Dortmund Airport (EDLW) at 07:40

Weather Information
Getting current METAR information for EDDM 221820Z VRB01KT 9999 FEW050TCU 18/15 Q1010 NOSIG
Getting current METAR information for EDLW 221820Z 00000KT CAVOK 20/10 Q1007

Schedule Frequency

Route Map